createdAt,value
2019-05-30T00:02:35.262Z,1.00
2019-05-30T00:07:28.699Z,1.00
2019-05-30T00:12:22.142Z,1.00
2019-05-30T00:17:16.231Z,0.93
2019-05-30T00:22:10.194Z,0.83
2019-05-30T00:27:04.548Z,1.03
2019-05-30T00:31:57.525Z,0.90
2019-05-30T00:36:50.859Z,0.90
2019-05-30T00:41:44.244Z,0.90
2019-05-30T00:46:37.646Z,0.70
2019-05-30T00:51:31.415Z,0.77
2019-05-30T00:56:25.083Z,0.73
2019-05-30T01:01:18.695Z,0.70
2019-05-30T01:06:12.385Z,0.90
2019-05-30T01:11:05.757Z,0.80
2019-05-30T01:15:59.463Z,0.70
2019-05-30T01:20:52.829Z,0.70
2019-05-30T01:25:46.523Z,0.73
2019-05-30T01:30:40.518Z,0.67
2019-05-30T01:35:34.462Z,1.30
2019-05-30T01:40:27.833Z,0.77
2019-05-30T01:45:21.202Z,0.80
2019-05-30T01:50:14.586Z,0.60
2019-05-30T01:55:09.004Z,0.70
2019-05-30T02:00:20.649Z,0.70
2019-05-30T02:05:13.544Z,0.63
2019-05-30T02:10:13.980Z,0.70
2019-05-30T02:15:07.780Z,0.80
2019-05-30T02:20:01.789Z,0.60
2019-05-30T02:25:08.106Z,0.80
2019-05-30T02:30:09.417Z,0.87
2019-05-30T02:35:03.245Z,0.80
2019-05-30T02:40:00.071Z,0.97
2019-05-30T02:44:51.566Z,1.00
2019-05-30T02:49:46.184Z,0.90
2019-05-30T02:54:46.051Z,0.90
2019-05-30T02:59:40.216Z,1.00
2019-05-30T03:04:35.542Z,1.03
2019-05-30T03:09:29.493Z,1.20
2019-05-30T03:14:29.932Z,1.20
2019-05-30T03:19:29.539Z,1.70
2019-05-30T03:24:34.124Z,1.57
2019-05-30T03:29:47.421Z,1.50
2019-05-30T03:34:54.768Z,1.90
2019-05-30T03:39:57.577Z,2.40
2019-05-30T03:45:04.178Z,2.93
2019-05-30T03:50:00.544Z,2.20
2019-05-30T03:55:09.947Z,2.27
2019-05-30T04:00:03.734Z,2.07
2019-05-30T04:05:00.224Z,2.50
2019-05-30T04:09:53.769Z,3.20
2019-05-30T04:14:47.154Z,3.27
2019-05-30T04:19:40.693Z,3.30
2019-05-30T04:24:34.144Z,3.20
2019-05-30T04:29:39.158Z,2.97
2019-05-30T04:34:32.784Z,3.27
2019-05-30T04:39:26.473Z,3.40
2019-05-30T04:44:20.645Z,2.90
2019-05-30T04:49:14.915Z,3.20
2019-05-30T04:54:07.534Z,2.87
2019-05-30T04:59:00.904Z,2.93
2019-05-30T05:03:54.590Z,2.73
2019-05-30T05:08:48.178Z,2.83
2019-05-30T05:13:41.986Z,3.40
2019-05-30T05:18:35.341Z,2.97
2019-05-30T05:23:28.923Z,3.10
2019-05-30T05:28:22.354Z,3.00
2019-05-30T05:33:16.713Z,3.07
2019-05-30T05:38:09.670Z,3.20
2019-05-30T05:43:03.785Z,3.53
2019-05-30T05:47:57.287Z,3.23
2019-05-30T05:52:50.837Z,4.33
2019-05-30T05:57:44.254Z,3.57
2019-05-30T06:02:37.670Z,3.60
2019-05-30T06:07:31.059Z,3.80
2019-05-30T06:12:24.439Z,3.87
2019-05-30T06:17:18.972Z,3.90
2019-05-30T06:22:11.765Z,4.20
2019-05-30T06:27:05.983Z,4.40
2019-05-30T06:31:59.437Z,4.33
2019-05-30T06:36:53.153Z,5.40
2019-05-30T06:41:46.822Z,4.73
2019-05-30T06:46:40.220Z,4.80
2019-05-30T06:51:33.865Z,5.10
2019-05-30T06:56:27.538Z,4.30
2019-05-30T07:01:22.036Z,4.67
2019-05-30T07:06:14.874Z,4.50
2019-05-30T07:11:08.039Z,4.83
2019-05-30T07:16:01.420Z,5.47
2019-05-30T07:20:55.064Z,5.40
2019-05-30T07:25:48.612Z,5.33
2019-05-30T07:30:42.615Z,5.57
2019-05-30T07:35:36.035Z,6.70
2019-05-30T07:40:30.444Z,6.93
2019-05-30T07:45:22.886Z,6.57
2019-05-30T07:50:16.254Z,7.23
2019-05-30T07:55:09.596Z,7.20
2019-05-30T08:00:04.407Z,7.10
2019-05-30T08:04:57.808Z,7.50
2019-05-30T08:09:51.284Z,7.83
2019-05-30T08:14:44.796Z,8.73
2019-05-30T08:19:38.558Z,7.60
2019-05-30T08:24:32.296Z,7.80
2019-05-30T08:29:25.929Z,8.17
2019-05-30T08:34:19.455Z,8.47
2019-05-30T08:39:12.919Z,8.20
2019-05-30T08:44:06.780Z,7.50
2019-05-30T08:49:02.033Z,7.30
2019-05-30T08:53:55.219Z,6.80
2019-05-30T08:58:48.830Z,7.13
2019-05-30T09:03:42.475Z,7.47
2019-05-30T09:08:36.020Z,7.40
2019-05-30T09:13:29.370Z,6.67
2019-05-30T09:18:22.757Z,7.20
2019-05-30T09:23:16.144Z,6.73
2019-05-30T09:28:09.561Z,6.47
2019-05-30T09:33:03.345Z,6.87
2019-05-30T09:37:56.741Z,6.37
2019-05-30T09:42:50.515Z,7.50
2019-05-30T09:47:46.660Z,6.80
2019-05-30T09:52:37.783Z,6.90
2019-05-30T09:57:31.150Z,7.17
2019-05-30T10:02:24.528Z,7.23
2019-05-30T10:07:17.882Z,7.53
2019-05-30T10:12:11.285Z,6.90
2019-05-30T10:17:04.597Z,7.50
2019-05-30T10:21:58.068Z,7.13
2019-05-30T10:26:51.377Z,7.97
2019-05-30T10:31:45.022Z,6.73
2019-05-30T10:36:44.165Z,8.13
2019-05-30T10:41:31.557Z,6.90
2019-05-30T10:46:24.879Z,7.40
2019-05-30T10:51:18.320Z,7.53
2019-05-30T10:56:11.632Z,7.20
2019-05-30T11:01:05.087Z,6.20
2019-05-30T11:06:00.685Z,6.07
2019-05-30T11:10:54.845Z,6.13
2019-05-30T11:15:48.760Z,5.37
2019-05-30T11:20:41.074Z,6.43
2019-05-30T11:25:34.402Z,5.60
2019-05-30T11:30:27.846Z,5.70
2019-05-30T11:35:21.202Z,6.30
2019-05-30T11:40:14.559Z,5.57
2019-05-30T11:45:07.912Z,5.70
2019-05-30T11:50:01.262Z,5.57
2019-05-30T11:54:55.756Z,5.10
2019-05-30T11:59:48.076Z,5.60
2019-05-30T12:04:41.667Z,5.20
2019-05-30T12:09:35.034Z,5.53
2019-05-30T12:14:28.513Z,4.40
2019-05-30T12:19:22.068Z,5.23
2019-05-30T12:24:15.598Z,4.67
2019-05-30T12:29:08.915Z,4.73
2019-05-30T12:34:02.742Z,5.00
2019-05-30T12:38:56.365Z,4.73
2019-05-30T12:43:49.095Z,4.40
2019-05-30T12:48:42.471Z,4.60
2019-05-30T12:53:36.483Z,4.37
2019-05-30T12:58:30.495Z,4.17
2019-05-30T13:03:23.830Z,4.30
2019-05-30T13:08:21.521Z,4.10
2019-05-30T13:13:10.607Z,4.63
2019-05-30T13:18:03.906Z,4.27
2019-05-30T13:22:58.405Z,4.10
2019-05-30T13:27:50.798Z,4.07
2019-05-30T13:32:44.163Z,4.63
2019-05-30T13:37:37.436Z,3.83
2019-05-30T13:42:30.890Z,3.67
2019-05-30T13:47:24.191Z,3.63
2019-05-30T13:52:17.647Z,4.03
2019-05-30T13:57:10.954Z,3.70
2019-05-30T14:02:04.550Z,3.57
2019-05-30T14:06:57.861Z,3.00
2019-05-30T14:11:51.466Z,4.13
2019-05-30T14:16:44.773Z,3.50
2019-05-30T14:21:38.316Z,4.00
2019-05-30T14:26:31.627Z,4.87
2019-05-30T14:31:25.601Z,5.33
2019-05-30T14:36:19.290Z,4.87
2019-05-30T14:41:13.509Z,4.80
2019-05-30T14:46:06.286Z,5.27
2019-05-30T14:50:59.432Z,4.80
2019-05-30T14:55:52.801Z,5.10
2019-05-30T15:00:46.176Z,5.27
2019-05-30T15:05:39.507Z,4.70
2019-05-30T15:10:32.944Z,5.93
2019-05-30T15:15:26.238Z,5.37
2019-05-30T15:20:19.693Z,5.30
2019-05-30T15:25:16.534Z,5.17
2019-05-30T15:30:06.587Z,5.80
2019-05-30T15:34:59.911Z,5.60
2019-05-30T15:39:53.202Z,5.63
2019-05-30T15:44:46.516Z,5.13
2019-05-30T15:49:40.082Z,4.80
2019-05-30T15:54:33.660Z,5.33
2019-05-30T15:59:26.985Z,5.10
2019-05-30T16:04:20.578Z,4.27
2019-05-30T16:09:14.624Z,4.60
2019-05-30T16:14:07.179Z,4.37
2019-05-30T16:19:15.024Z,4.80
2019-05-30T16:23:54.532Z,4.07
2019-05-30T16:28:47.871Z,4.07
2019-05-30T16:33:41.726Z,3.47
2019-05-30T16:38:35.063Z,4.33
2019-05-30T16:43:28.390Z,3.90
2019-05-30T16:48:22.533Z,4.10
2019-05-30T16:53:15.066Z,3.70
2019-05-30T16:58:08.415Z,3.90
2019-05-30T17:03:01.872Z,3.80
2019-05-30T17:07:55.213Z,4.07
2019-05-30T17:12:48.564Z,4.00
2019-05-30T17:17:41.944Z,3.30
2019-05-30T17:22:35.952Z,3.77
2019-05-30T17:27:29.423Z,4.10
2019-05-30T17:32:23.877Z,3.43
2019-05-30T17:37:16.162Z,3.50
2019-05-30T17:42:09.491Z,3.67
2019-05-30T17:47:03.359Z,3.77
2019-05-30T17:51:56.930Z,3.87
2019-05-30T17:56:50.262Z,3.60
2019-05-30T18:01:43.994Z,3.97
2019-05-30T18:06:37.355Z,4.30
2019-05-30T18:11:31.366Z,3.60
2019-05-30T18:16:25.181Z,3.70
2019-05-30T18:21:18.100Z,3.73
2019-05-30T18:26:11.492Z,3.73
2019-05-30T18:31:04.863Z,3.80
2019-05-30T18:35:58.574Z,3.47
2019-05-30T18:40:52.555Z,4.00
2019-05-30T18:45:45.907Z,4.00
2019-05-30T18:50:39.335Z,4.07
2019-05-30T18:55:33.089Z,3.70
2019-05-30T19:00:26.986Z,3.80
2019-05-30T19:05:19.870Z,3.77
2019-05-30T19:10:13.211Z,4.10
2019-05-30T19:15:06.583Z,3.73
2019-05-30T19:19:59.937Z,3.90
2019-05-30T19:24:53.333Z,3.53
2019-05-30T19:29:46.689Z,3.40
2019-05-30T19:34:40.110Z,3.53
2019-05-30T19:39:33.696Z,3.57
2019-05-30T19:44:27.786Z,3.20
2019-05-30T19:49:20.466Z,3.33
2019-05-30T19:54:13.890Z,3.70
2019-05-30T19:59:07.264Z,3.73
2019-05-30T20:04:00.603Z,3.67
2019-05-30T20:08:55.808Z,3.50
2019-05-30T20:13:47.363Z,3.50
2019-05-30T20:18:41.734Z,3.43
2019-05-30T20:23:48.442Z,3.50
2019-05-30T20:28:27.456Z,3.37
2019-05-30T20:33:20.798Z,3.30
2019-05-30T20:38:14.135Z,3.27
2019-05-30T20:43:07.633Z,4.07
2019-05-30T20:48:00.924Z,3.23
2019-05-30T20:52:54.692Z,3.40
2019-05-30T20:57:48.028Z,3.20
2019-05-30T21:02:41.462Z,3.63
2019-05-30T21:07:35.879Z,3.17
2019-05-30T21:12:41.168Z,3.47
2019-05-30T21:17:21.575Z,3.77
2019-05-30T21:22:14.976Z,4.80
2019-05-30T21:27:08.291Z,4.50
2019-05-30T21:32:01.790Z,5.53
2019-05-30T21:36:55.130Z,4.63
2019-05-30T21:41:48.598Z,4.97
2019-05-30T21:46:42.535Z,4.80
2019-05-30T21:51:35.231Z,6.50
2019-05-30T21:56:28.556Z,6.03
2019-05-30T22:01:30.911Z,6.47
2019-05-30T22:06:24.240Z,5.17
2019-05-30T22:11:17.686Z,5.80
2019-05-30T22:16:10.992Z,6.27
2019-05-30T22:21:04.446Z,6.07
2019-05-30T22:25:57.763Z,5.73
2019-05-30T22:30:51.186Z,5.43
2019-05-30T22:35:44.776Z,6.13
2019-05-30T22:40:39.480Z,6.17
2019-05-30T22:45:32.829Z,6.97
2019-05-30T22:50:26.865Z,6.03
2019-05-30T22:55:20.221Z,6.00
2019-05-30T23:00:13.623Z,6.53
2019-05-30T23:05:06.994Z,6.10
2019-05-30T23:10:00.381Z,5.90
2019-05-30T23:14:54.313Z,6.07
2019-05-30T23:19:48.501Z,7.27
2019-05-30T23:24:40.828Z,6.03
2019-05-30T23:29:34.191Z,5.67
2019-05-30T23:34:27.566Z,6.07
2019-05-30T23:39:20.930Z,4.87
2019-05-30T23:44:14.329Z,5.10
2019-05-30T23:49:07.687Z,4.70
2019-05-30T23:54:01.097Z,5.43
2019-05-30T23:58:54.770Z,5.93
